ACA22 CYYZ-KTUL
Flight info
| Callsign | ACA22 |
|---|---|
| Flight time | 2h 23m |
| Altitude | 38000 |
| Route | GOPUP4HOCKE/23 GOPUP4 HOCKE DCT FNT DCT ELANR DCT PHEEB DCT DIRTT DCT SGF VINTA3 |
| Aircraft | B77W/H-SDE1E2E3FGHIJ2J3J4J5M1RWXY/LB1D1 |
Departure
| Time | 2026-05-09 00:44 |
|---|---|
| Airport | Toronto Pearson International Airport (CYYZ) |
Arrival
| Time | 2026-05-09 03:07 |
|---|---|
| Airport | Tulsa International Airport (KTUL) |
| Time | Latitude | Longitude | Altitude | Speed | Heading |
|---|---|---|---|---|---|
| 2026-05-09 00:24 | 43.68308 | -79.62138 | 568 ft | 0 kts | 112° |
| 2026-05-09 00:33 | 43.68309 | -79.62141 | 569 ft | 2 kts | 112° |
| 2026-05-09 00:34 | 43.68315 | -79.62162 | 577 ft | 2 kts | 113° |
| 2026-05-09 00:34 | 43.68321 | -79.62182 | 575 ft | 2 kts | 113° |
| 2026-05-09 00:34 | 43.68328 | -79.62203 | 578 ft | 2 kts | 113° |
| 2026-05-09 00:34 | 43.68335 | -79.62223 | 574 ft | 2 kts | 137° |
| 2026-05-09 00:35 | 43.68349 | -79.62234 | 578 ft | 2 kts | 174° |
| 2026-05-09 00:35 | 43.68362 | -79.62233 | 577 ft | 0 kts | 199° |
| 2026-05-09 00:36 | 43.68361 | -79.62233 | 577 ft | 2 kts | 199° |
| 2026-05-09 00:36 | 43.68333 | -79.62255 | 577 ft | 3 kts | 217° |
| 2026-05-09 00:37 | 43.68316 | -79.62277 | 577 ft | 3 kts | 224° |
| 2026-05-09 00:37 | 43.68301 | -79.62301 | 576 ft | 3 kts | 234° |
| 2026-05-09 00:37 | 43.68293 | -79.62334 | 576 ft | 4 kts | 261° |
| 2026-05-09 00:37 | 43.68284 | -79.62369 | 572 ft | 4 kts | 245° |
| 2026-05-09 00:38 | 43.68271 | -79.62405 | 573 ft | 4 kts | 244° |
| 2026-05-09 00:38 | 43.68268 | -79.62446 | 571 ft | 4 kts | 280° |
| 2026-05-09 00:38 | 43.68283 | -79.62483 | 575 ft | 4 kts | 306° |
| 2026-05-09 00:38 | 43.68304 | -79.62515 | 573 ft | 5 kts | 313° |
| 2026-05-09 00:39 | 43.68325 | -79.62547 | 578 ft | 5 kts | 314° |
| 2026-05-09 00:39 | 43.68348 | -79.62577 | 580 ft | 5 kts | 315° |
| 2026-05-09 00:39 | 43.68377 | -79.62618 | 579 ft | 13 kts | 315° |
| 2026-05-09 00:39 | 43.68465 | -79.62733 | 578 ft | 18 kts | 317° |
| 2026-05-09 00:40 | 43.68550 | -79.62844 | 577 ft | 16 kts | 316° |
| 2026-05-09 00:40 | 43.68633 | -79.62952 | 574 ft | 15 kts | 317° |
| 2026-05-09 00:40 | 43.68704 | -79.63044 | 573 ft | 14 kts | 317° |
| 2026-05-09 00:41 | 43.68844 | -79.63228 | 575 ft | 14 kts | 317° |
| 2026-05-09 00:41 | 43.68890 | -79.63286 | 574 ft | 13 kts | 317° |
| 2026-05-09 00:41 | 43.68980 | -79.63403 | 579 ft | 13 kts | 317° |
| 2026-05-09 00:41 | 43.69047 | -79.63491 | 574 ft | 14 kts | 316° |
| 2026-05-09 00:42 | 43.69125 | -79.63510 | 578 ft | 12 kts | 27° |
| 2026-05-09 00:42 | 43.69191 | -79.63443 | 579 ft | 12 kts | 22° |
| 2026-05-09 00:42 | 43.69251 | -79.63427 | 572 ft | 14 kts | 5° |
| 2026-05-09 00:42 | 43.69321 | -79.63421 | 570 ft | 8 kts | 4° |
| 2026-05-09 00:43 | 43.69328 | -79.63420 | 569 ft | 0 kts | 0° |
| 2026-05-09 00:43 | 43.69334 | -79.63421 | 570 ft | 4 kts | 357° |
| 2026-05-09 00:43 | 43.69391 | -79.63473 | 570 ft | 9 kts | 287° |
| 2026-05-09 00:43 | 43.69372 | -79.63561 | 569 ft | 10 kts | 234° |
| 2026-05-09 00:44 | 43.69193 | -79.63819 | 578 ft | 91 kts | 224° |
| 2026-05-09 00:44 | 43.68471 | -79.64852 | 658 ft | 201 kts | 226° |
| 2026-05-09 00:44 | 43.67408 | -79.66448 | 1358 ft | 221 kts | 225° |
| 2026-05-09 00:44 | 43.66678 | -79.68121 | 1452 ft | 201 kts | 258° |
| 2026-05-09 00:45 | 43.66782 | -79.69910 | 1605 ft | 174 kts | 279° |
| 2026-05-09 00:45 | 43.66996 | -79.71546 | 1934 ft | 191 kts | 277° |
| 2026-05-09 00:45 | 43.67232 | -79.73544 | 3026 ft | 228 kts | 278° |
| 2026-05-09 00:45 | 43.67503 | -79.75775 | 4043 ft | 241 kts | 279° |
| 2026-05-09 00:46 | 43.67787 | -79.78075 | 4828 ft | 243 kts | 279° |
| 2026-05-09 00:46 | 43.68071 | -79.80356 | 5579 ft | 239 kts | 278° |
| 2026-05-09 00:46 | 43.68353 | -79.82614 | 6358 ft | 237 kts | 278° |
| 2026-05-09 00:46 | 43.68632 | -79.84846 | 7097 ft | 235 kts | 279° |
| 2026-05-09 00:47 | 43.68911 | -79.87083 | 7855 ft | 237 kts | 279° |
| 2026-05-09 00:47 | 43.69191 | -79.89343 | 8646 ft | 240 kts | 279° |
| 2026-05-09 00:47 | 43.69474 | -79.91631 | 9462 ft | 243 kts | 279° |
| 2026-05-09 00:47 | 43.69762 | -79.93953 | 10248 ft | 247 kts | 279° |
| 2026-05-09 00:48 | 43.70017 | -79.96312 | 10993 ft | 251 kts | 278° |
| 2026-05-09 00:48 | 43.70266 | -79.98808 | 11760 ft | 274 kts | 278° |
| 2026-05-09 00:48 | 43.70530 | -80.01483 | 12607 ft | 291 kts | 278° |
| 2026-05-09 00:48 | 43.70817 | -80.04382 | 13486 ft | 317 kts | 278° |
| 2026-05-09 00:49 | 43.71124 | -80.07491 | 14287 ft | 333 kts | 278° |
| 2026-05-09 00:49 | 43.71439 | -80.10672 | 15035 ft | 334 kts | 278° |
| 2026-05-09 00:49 | 43.71754 | -80.13854 | 15794 ft | 334 kts | 278° |
| 2026-05-09 00:49 | 43.72069 | -80.17038 | 16570 ft | 335 kts | 278° |
| 2026-05-09 00:50 | 43.72384 | -80.20234 | 17374 ft | 336 kts | 278° |
| 2026-05-09 00:50 | 43.72701 | -80.23454 | 18198 ft | 338 kts | 278° |
| 2026-05-09 00:50 | 43.73018 | -80.26690 | 18924 ft | 341 kts | 278° |
| 2026-05-09 00:50 | 43.73328 | -80.29960 | 19671 ft | 345 kts | 276° |
| 2026-05-09 00:51 | 43.73422 | -80.33293 | 20435 ft | 348 kts | 271° |
| 2026-05-09 00:51 | 43.73408 | -80.36654 | 21209 ft | 352 kts | 270° |
| 2026-05-09 00:51 | 43.73388 | -80.40058 | 22016 ft | 355 kts | 270° |
| 2026-05-09 00:51 | 43.73372 | -80.43480 | 22844 ft | 357 kts | 270° |
| 2026-05-09 00:52 | 43.73361 | -80.46928 | 23651 ft | 360 kts | 271° |
| 2026-05-09 00:52 | 43.73355 | -80.50352 | 24356 ft | 361 kts | 271° |
| 2026-05-09 00:52 | 43.73353 | -80.53830 | 25087 ft | 362 kts | 270° |
| 2026-05-09 00:52 | 43.73351 | -80.57365 | 25848 ft | 362 kts | 270° |
| 2026-05-09 00:53 | 43.73351 | -80.60844 | 26619 ft | 361 kts | 270° |
| 2026-05-09 00:53 | 43.73350 | -80.64268 | 27387 ft | 359 kts | 270° |
| 2026-05-09 00:53 | 43.73349 | -80.67706 | 28179 ft | 357 kts | 270° |
| 2026-05-09 00:53 | 43.73347 | -80.71153 | 28737 ft | 359 kts | 270° |
| 2026-05-09 00:54 | 43.73343 | -80.74616 | 29306 ft | 361 kts | 270° |
| 2026-05-09 00:54 | 43.73339 | -80.78088 | 29879 ft | 361 kts | 270° |
| 2026-05-09 00:54 | 43.73334 | -80.81561 | 30380 ft | 361 kts | 270° |
| 2026-05-09 00:54 | 43.73328 | -80.85038 | 30859 ft | 361 kts | 270° |
| 2026-05-09 00:55 | 43.73321 | -80.88506 | 31360 ft | 360 kts | 270° |
| 2026-05-09 00:55 | 43.73312 | -80.91977 | 31860 ft | 359 kts | 270° |
| 2026-05-09 00:55 | 43.73303 | -80.95431 | 32368 ft | 359 kts | 270° |
| 2026-05-09 00:55 | 43.73292 | -80.98882 | 32896 ft | 358 kts | 270° |
| 2026-05-09 00:56 | 43.73281 | -81.02321 | 33421 ft | 357 kts | 270° |
| 2026-05-09 00:56 | 43.73269 | -81.05704 | 33939 ft | 356 kts | 270° |
| 2026-05-09 00:56 | 43.73255 | -81.09122 | 34372 ft | 354 kts | 270° |
| 2026-05-09 00:56 | 43.73241 | -81.12527 | 34814 ft | 353 kts | 270° |
| 2026-05-09 00:57 | 43.73226 | -81.15909 | 35286 ft | 350 kts | 269° |
| 2026-05-09 00:57 | 43.73210 | -81.19263 | 35752 ft | 348 kts | 269° |
| 2026-05-09 00:57 | 43.73193 | -81.22593 | 36212 ft | 345 kts | 269° |
| 2026-05-09 00:57 | 43.73175 | -81.25889 | 36693 ft | 341 kts | 269° |
| 2026-05-09 00:58 | 43.73157 | -81.29150 | 37183 ft | 336 kts | 269° |
| 2026-05-09 00:58 | 43.73138 | -81.32360 | 37663 ft | 331 kts | 269° |
| 2026-05-09 00:58 | 43.73118 | -81.35549 | 37873 ft | 334 kts | 269° |
| 2026-05-09 00:58 | 43.73097 | -81.38798 | 37881 ft | 340 kts | 269° |
| 2026-05-09 00:59 | 43.73052 | -81.45447 | 37874 ft | 355 kts | 269° |
| 2026-05-09 00:59 | 43.72998 | -81.52416 | 37866 ft | 369 kts | 268° |
| 2026-05-09 01:00 | 43.72658 | -81.55953 | 37873 ft | 376 kts | 256° |
| 2026-05-09 01:00 | 43.71675 | -81.59347 | 37841 ft | 386 kts | 245° |
| 2026-05-09 01:00 | 43.68902 | -81.65854 | 37880 ft | 399 kts | 244° |
| 2026-05-09 01:01 | 43.66183 | -81.72689 | 37871 ft | 412 kts | 245° |
| 2026-05-09 01:01 | 43.63393 | -81.79745 | 37857 ft | 424 kts | 245° |
| 2026-05-09 01:02 | 43.60511 | -81.86962 | 37857 ft | 434 kts | 244° |
| 2026-05-09 01:02 | 43.57568 | -81.94276 | 37853 ft | 437 kts | 244° |
| 2026-05-09 01:03 | 43.54606 | -82.01610 | 37828 ft | 437 kts | 244° |
| 2026-05-09 01:03 | 43.51706 | -82.08768 | 37843 ft | 425 kts | 244° |
| 2026-05-09 01:04 | 43.48825 | -82.15874 | 37847 ft | 424 kts | 244° |
| 2026-05-09 01:04 | 43.45940 | -82.22980 | 37855 ft | 425 kts | 244° |
| 2026-05-09 01:05 | 43.43048 | -82.30081 | 37854 ft | 426 kts | 244° |
| 2026-05-09 01:06 | 43.38684 | -82.40759 | 37846 ft | 427 kts | 244° |
| 2026-05-09 01:06 | 43.35763 | -82.47885 | 37833 ft | 428 kts | 244° |
| 2026-05-09 01:07 | 43.32856 | -82.54959 | 37834 ft | 427 kts | 244° |
| 2026-05-09 01:07 | 43.29929 | -82.62069 | 37831 ft | 427 kts | 244° |
| 2026-05-09 01:08 | 43.26998 | -82.69166 | 37833 ft | 427 kts | 244° |
| 2026-05-09 01:08 | 43.24550 | -82.76525 | 37823 ft | 422 kts | 252° |
| 2026-05-09 01:09 | 43.22525 | -82.84073 | 37821 ft | 422 kts | 252° |
| 2026-05-09 01:09 | 43.20444 | -82.91614 | 37793 ft | 422 kts | 252° |
| 2026-05-09 01:10 | 43.18353 | -82.99065 | 37808 ft | 421 kts | 251° |
| 2026-05-09 01:10 | 43.16238 | -83.06548 | 37811 ft | 420 kts | 251° |
| 2026-05-09 01:11 | 43.14122 | -83.14014 | 37814 ft | 420 kts | 251° |
| 2026-05-09 01:11 | 43.12004 | -83.21465 | 37821 ft | 420 kts | 251° |
| 2026-05-09 01:12 | 43.09882 | -83.28914 | 37825 ft | 420 kts | 251° |
| 2026-05-09 01:12 | 43.07752 | -83.36367 | 37819 ft | 420 kts | 251° |
| 2026-05-09 01:13 | 43.05633 | -83.43760 | 37815 ft | 420 kts | 251° |
| 2026-05-09 01:13 | 43.03494 | -83.51199 | 37818 ft | 419 kts | 251° |
| 2026-05-09 01:14 | 43.01360 | -83.58602 | 37821 ft | 418 kts | 251° |
| 2026-05-09 01:14 | 42.99227 | -83.65985 | 37823 ft | 417 kts | 251° |
| 2026-05-09 01:15 | 42.97094 | -83.73341 | 37822 ft | 416 kts | 251° |
| 2026-05-09 01:15 | 42.94362 | -83.80346 | 37832 ft | 420 kts | 242° |
| 2026-05-09 01:16 | 42.91293 | -83.87120 | 37821 ft | 420 kts | 243° |
| 2026-05-09 01:16 | 42.88260 | -83.93930 | 37824 ft | 420 kts | 243° |
| 2026-05-09 01:17 | 42.83739 | -84.04168 | 37823 ft | 420 kts | 243° |
| 2026-05-09 01:17 | 42.80724 | -84.10990 | 37828 ft | 420 kts | 243° |
| 2026-05-09 01:18 | 42.77703 | -84.17811 | 37829 ft | 420 kts | 243° |
| 2026-05-09 01:18 | 42.74698 | -84.24578 | 37830 ft | 421 kts | 243° |
| 2026-05-09 01:19 | 42.70597 | -84.33786 | 37831 ft | 420 kts | 243° |
| 2026-05-09 01:19 | 42.63360 | -84.49967 | 37825 ft | 421 kts | 243° |
| 2026-05-09 01:20 | 42.60315 | -84.56748 | 37825 ft | 421 kts | 243° |
| 2026-05-09 01:20 | 42.57264 | -84.63529 | 37826 ft | 421 kts | 243° |
| 2026-05-09 01:21 | 42.54210 | -84.70299 | 37821 ft | 421 kts | 243° |
| 2026-05-09 01:21 | 42.51154 | -84.77059 | 37825 ft | 421 kts | 243° |
| 2026-05-09 01:22 | 42.48090 | -84.83823 | 37829 ft | 420 kts | 243° |
| 2026-05-09 01:22 | 42.45029 | -84.90563 | 37832 ft | 420 kts | 242° |
| 2026-05-09 01:23 | 42.41965 | -84.97294 | 37842 ft | 419 kts | 242° |
| 2026-05-09 01:23 | 42.38917 | -85.03975 | 37845 ft | 419 kts | 242° |
| 2026-05-09 01:24 | 42.35852 | -85.10681 | 37841 ft | 419 kts | 242° |
| 2026-05-09 01:24 | 42.32778 | -85.17389 | 37840 ft | 420 kts | 242° |
| 2026-05-09 01:25 | 42.29697 | -85.24096 | 37813 ft | 419 kts | 242° |
| 2026-05-09 01:25 | 42.27143 | -85.29645 | 37832 ft | 418 kts | 242° |
| 2026-05-09 01:26 | 42.24067 | -85.36315 | 37835 ft | 418 kts | 242° |
| 2026-05-09 01:26 | 42.20992 | -85.42967 | 37850 ft | 417 kts | 242° |
| 2026-05-09 01:27 | 42.17916 | -85.49607 | 37840 ft | 418 kts | 242° |
| 2026-05-09 01:27 | 42.14833 | -85.56248 | 37839 ft | 418 kts | 242° |
| 2026-05-09 01:28 | 42.11740 | -85.62895 | 37836 ft | 418 kts | 242° |
| 2026-05-09 01:28 | 42.08649 | -85.69524 | 37832 ft | 418 kts | 242° |
| 2026-05-09 01:29 | 42.05565 | -85.76088 | 37836 ft | 417 kts | 241° |
| 2026-05-09 01:29 | 42.02402 | -85.82639 | 37836 ft | 417 kts | 241° |
| 2026-05-09 01:30 | 41.99230 | -85.89171 | 37841 ft | 417 kts | 241° |
| 2026-05-09 01:30 | 41.96064 | -85.95697 | 37839 ft | 417 kts | 241° |
| 2026-05-09 01:31 | 41.92900 | -86.02217 | 37839 ft | 417 kts | 241° |
| 2026-05-09 01:31 | 41.89733 | -86.08733 | 37834 ft | 416 kts | 241° |
| 2026-05-09 01:32 | 41.86569 | -86.15230 | 37849 ft | 415 kts | 241° |
| 2026-05-09 01:32 | 41.83403 | -86.21718 | 37836 ft | 416 kts | 241° |
| 2026-05-09 01:33 | 41.80231 | -86.28204 | 37842 ft | 416 kts | 241° |
| 2026-05-09 01:33 | 41.77054 | -86.34685 | 37844 ft | 416 kts | 241° |
| 2026-05-09 01:34 | 41.73894 | -86.41117 | 37842 ft | 416 kts | 241° |
| 2026-05-09 01:34 | 41.70705 | -86.47594 | 37838 ft | 416 kts | 241° |
| 2026-05-09 01:35 | 41.67519 | -86.54054 | 37843 ft | 416 kts | 241° |
| 2026-05-09 01:35 | 41.64327 | -86.60511 | 37834 ft | 416 kts | 241° |
| 2026-05-09 01:36 | 41.61125 | -86.66974 | 37830 ft | 417 kts | 241° |
| 2026-05-09 01:36 | 41.57918 | -86.73434 | 37834 ft | 417 kts | 241° |
| 2026-05-09 01:37 | 41.54708 | -86.79885 | 37837 ft | 417 kts | 241° |
| 2026-05-09 01:37 | 41.51492 | -86.86336 | 37804 ft | 417 kts | 241° |
| 2026-05-09 01:38 | 41.48271 | -86.92781 | 37823 ft | 417 kts | 241° |
| 2026-05-09 01:38 | 41.45047 | -86.99221 | 37828 ft | 417 kts | 241° |
| 2026-05-09 01:39 | 41.41846 | -87.05601 | 37831 ft | 417 kts | 241° |
| 2026-05-09 01:39 | 41.38619 | -87.12019 | 37832 ft | 417 kts | 241° |
| 2026-05-09 01:40 | 41.35383 | -87.18442 | 37835 ft | 417 kts | 241° |
| 2026-05-09 01:40 | 41.32147 | -87.24850 | 37843 ft | 417 kts | 241° |
| 2026-05-09 01:41 | 41.28907 | -87.31254 | 37828 ft | 417 kts | 240° |
| 2026-05-09 01:41 | 41.25665 | -87.37649 | 37837 ft | 417 kts | 240° |
| 2026-05-09 01:42 | 41.22418 | -87.44039 | 37834 ft | 417 kts | 240° |
| 2026-05-09 01:42 | 41.19188 | -87.50384 | 37837 ft | 417 kts | 240° |
| 2026-05-09 01:43 | 41.15933 | -87.56764 | 37847 ft | 417 kts | 240° |
| 2026-05-09 01:43 | 41.12671 | -87.63145 | 37849 ft | 417 kts | 240° |
| 2026-05-09 01:44 | 41.09410 | -87.69509 | 37843 ft | 417 kts | 240° |
| 2026-05-09 01:44 | 41.06149 | -87.75861 | 37849 ft | 417 kts | 240° |
| 2026-05-09 01:45 | 41.02882 | -87.82211 | 37852 ft | 417 kts | 240° |
| 2026-05-09 01:45 | 40.99616 | -87.88549 | 37852 ft | 417 kts | 240° |
| 2026-05-09 01:46 | 40.96363 | -87.94845 | 37852 ft | 417 kts | 240° |
| 2026-05-09 01:46 | 40.93086 | -88.01177 | 37848 ft | 417 kts | 240° |
| 2026-05-09 01:47 | 40.89805 | -88.07503 | 37852 ft | 417 kts | 240° |
| 2026-05-09 01:47 | 40.86524 | -88.13816 | 37845 ft | 416 kts | 240° |
| 2026-05-09 01:48 | 40.83243 | -88.20116 | 37847 ft | 416 kts | 240° |
| 2026-05-09 01:48 | 40.79953 | -88.26421 | 37846 ft | 417 kts | 240° |
| 2026-05-09 01:49 | 40.76661 | -88.32717 | 37847 ft | 417 kts | 240° |
| 2026-05-09 01:49 | 40.73386 | -88.38967 | 37851 ft | 417 kts | 240° |
| 2026-05-09 01:50 | 40.70086 | -88.45254 | 37852 ft | 417 kts | 240° |
| 2026-05-09 01:50 | 40.66760 | -88.51575 | 37859 ft | 417 kts | 240° |
| 2026-05-09 01:51 | 40.63471 | -88.57815 | 37853 ft | 418 kts | 240° |
| 2026-05-09 01:51 | 40.60155 | -88.64093 | 37856 ft | 418 kts | 240° |
| 2026-05-09 01:52 | 40.56834 | -88.70367 | 37855 ft | 418 kts | 240° |
| 2026-05-09 01:52 | 40.53511 | -88.76634 | 37852 ft | 418 kts | 240° |
| 2026-05-09 01:53 | 40.50184 | -88.82894 | 37852 ft | 418 kts | 240° |
| 2026-05-09 01:53 | 40.46853 | -88.89150 | 37815 ft | 418 kts | 239° |
| 2026-05-09 01:54 | 40.43524 | -88.95389 | 37845 ft | 417 kts | 239° |
| 2026-05-09 01:54 | 40.40188 | -89.01630 | 37853 ft | 417 kts | 239° |
| 2026-05-09 01:55 | 40.36852 | -89.07860 | 37860 ft | 418 kts | 239° |
| 2026-05-09 01:55 | 40.33508 | -89.14090 | 37860 ft | 418 kts | 239° |
| 2026-05-09 01:56 | 40.30161 | -89.20316 | 37860 ft | 418 kts | 239° |
| 2026-05-09 01:56 | 40.26809 | -89.26540 | 37854 ft | 418 kts | 239° |
| 2026-05-09 01:57 | 40.23413 | -89.32715 | 37856 ft | 418 kts | 238° |
| 2026-05-09 01:57 | 40.19971 | -89.38856 | 37857 ft | 418 kts | 238° |
| 2026-05-09 01:58 | 40.16526 | -89.44998 | 37862 ft | 419 kts | 238° |
| 2026-05-09 01:58 | 40.13103 | -89.51105 | 37861 ft | 419 kts | 238° |
| 2026-05-09 01:59 | 40.09652 | -89.57256 | 37858 ft | 420 kts | 238° |
| 2026-05-09 01:59 | 40.06194 | -89.63411 | 37856 ft | 420 kts | 238° |
| 2026-05-09 02:00 | 40.02737 | -89.69551 | 37816 ft | 420 kts | 238° |
| 2026-05-09 02:00 | 39.99275 | -89.75687 | 37841 ft | 419 kts | 238° |
| 2026-05-09 02:01 | 39.95816 | -89.81807 | 37844 ft | 419 kts | 238° |
| 2026-05-09 02:01 | 39.92373 | -89.87885 | 37871 ft | 419 kts | 238° |
| 2026-05-09 02:02 | 39.88905 | -89.93997 | 37870 ft | 419 kts | 238° |
| 2026-05-09 02:02 | 39.85429 | -90.00110 | 37856 ft | 420 kts | 238° |
| 2026-05-09 02:03 | 39.81948 | -90.06221 | 37865 ft | 421 kts | 238° |
| 2026-05-09 02:03 | 39.78459 | -90.12335 | 37864 ft | 421 kts | 238° |
| 2026-05-09 02:04 | 39.74960 | -90.18454 | 37869 ft | 422 kts | 238° |
| 2026-05-09 02:04 | 39.71447 | -90.24584 | 37871 ft | 423 kts | 238° |
| 2026-05-09 02:05 | 39.67919 | -90.30729 | 37868 ft | 424 kts | 238° |
| 2026-05-09 02:05 | 39.64415 | -90.36820 | 37864 ft | 424 kts | 238° |
| 2026-05-09 02:06 | 39.60877 | -90.42958 | 37865 ft | 425 kts | 238° |
| 2026-05-09 02:07 | 39.55564 | -90.52156 | 37863 ft | 424 kts | 238° |
| 2026-05-09 02:07 | 39.52021 | -90.58274 | 37865 ft | 424 kts | 238° |
| 2026-05-09 02:08 | 39.48475 | -90.64385 | 37874 ft | 425 kts | 238° |
| 2026-05-09 02:08 | 39.44921 | -90.70500 | 37870 ft | 425 kts | 238° |
| 2026-05-09 02:09 | 39.41383 | -90.76574 | 37858 ft | 425 kts | 238° |
| 2026-05-09 02:09 | 39.37821 | -90.82678 | 37863 ft | 425 kts | 238° |
| 2026-05-09 02:10 | 39.34256 | -90.88778 | 37800 ft | 426 kts | 238° |
| 2026-05-09 02:10 | 39.32463 | -90.91841 | 37511 ft | 427 kts | 237° |
| 2026-05-09 02:10 | 39.30680 | -90.94884 | 37316 ft | 423 kts | 237° |
| 2026-05-09 02:10 | 39.28906 | -90.97907 | 37130 ft | 420 kts | 237° |
| 2026-05-09 02:11 | 39.27145 | -91.00906 | 36950 ft | 419 kts | 237° |
| 2026-05-09 02:11 | 39.25358 | -91.03873 | 36764 ft | 419 kts | 234° |
| 2026-05-09 02:11 | 39.23304 | -91.06581 | 36583 ft | 422 kts | 229° |
| 2026-05-09 02:11 | 39.21178 | -91.09171 | 36411 ft | 421 kts | 229° |
| 2026-05-09 02:12 | 39.19770 | -91.10888 | 36303 ft | 420 kts | 229° |
| 2026-05-09 02:12 | 39.17653 | -91.13485 | 36119 ft | 419 kts | 229° |
| 2026-05-09 02:12 | 39.15548 | -91.16084 | 35949 ft | 418 kts | 229° |
| 2026-05-09 02:12 | 39.12778 | -91.19526 | 35716 ft | 417 kts | 228° |
| 2026-05-09 02:13 | 39.10698 | -91.22118 | 35509 ft | 416 kts | 229° |
| 2026-05-09 02:13 | 39.09295 | -91.23869 | 35389 ft | 416 kts | 228° |
| 2026-05-09 02:13 | 39.07218 | -91.26462 | 35231 ft | 416 kts | 228° |
| 2026-05-09 02:13 | 39.05150 | -91.29042 | 35048 ft | 409 kts | 228° |
| 2026-05-09 02:14 | 39.03139 | -91.31544 | 34874 ft | 396 kts | 228° |
| 2026-05-09 02:14 | 39.01211 | -91.33940 | 34683 ft | 385 kts | 228° |
| 2026-05-09 02:14 | 38.99310 | -91.36302 | 34501 ft | 375 kts | 228° |
| 2026-05-09 02:14 | 38.97457 | -91.38604 | 34313 ft | 365 kts | 228° |
| 2026-05-09 02:15 | 38.95660 | -91.40837 | 34137 ft | 355 kts | 228° |
| 2026-05-09 02:15 | 38.93902 | -91.43019 | 33965 ft | 348 kts | 228° |
| 2026-05-09 02:15 | 38.92170 | -91.45172 | 33791 ft | 345 kts | 227° |
| 2026-05-09 02:15 | 38.90444 | -91.47315 | 33603 ft | 345 kts | 227° |
| 2026-05-09 02:16 | 38.88724 | -91.49450 | 33409 ft | 344 kts | 227° |
| 2026-05-09 02:16 | 38.87004 | -91.51582 | 33195 ft | 344 kts | 228° |
| 2026-05-09 02:16 | 38.85285 | -91.53711 | 32982 ft | 344 kts | 227° |
| 2026-05-09 02:16 | 38.83561 | -91.55845 | 32797 ft | 344 kts | 227° |
| 2026-05-09 02:17 | 38.81839 | -91.57973 | 32608 ft | 344 kts | 227° |
| 2026-05-09 02:17 | 38.80137 | -91.60074 | 32436 ft | 344 kts | 227° |
| 2026-05-09 02:17 | 38.78412 | -91.62203 | 32249 ft | 344 kts | 227° |
| 2026-05-09 02:17 | 38.76684 | -91.64333 | 32070 ft | 344 kts | 227° |
| 2026-05-09 02:18 | 38.74956 | -91.66461 | 31893 ft | 345 kts | 226° |
| 2026-05-09 02:18 | 38.73228 | -91.68589 | 31717 ft | 345 kts | 226° |
| 2026-05-09 02:18 | 38.71494 | -91.70723 | 31503 ft | 348 kts | 226° |
| 2026-05-09 02:18 | 38.69694 | -91.72942 | 31133 ft | 372 kts | 226° |
| 2026-05-09 02:19 | 38.67771 | -91.75312 | 30771 ft | 395 kts | 226° |
| 2026-05-09 02:19 | 38.65745 | -91.77804 | 30565 ft | 413 kts | 226° |
| 2026-05-09 02:19 | 38.63628 | -91.80401 | 30293 ft | 429 kts | 226° |
| 2026-05-09 02:19 | 38.61439 | -91.83083 | 30062 ft | 439 kts | 225° |
| 2026-05-09 02:20 | 38.59233 | -91.85778 | 29794 ft | 437 kts | 225° |
| 2026-05-09 02:20 | 38.57036 | -91.88459 | 29523 ft | 434 kts | 225° |
| 2026-05-09 02:20 | 38.54857 | -91.91116 | 29246 ft | 432 kts | 225° |
| 2026-05-09 02:20 | 38.52715 | -91.93727 | 28969 ft | 430 kts | 225° |
| 2026-05-09 02:21 | 38.50555 | -91.96360 | 28701 ft | 428 kts | 226° |
| 2026-05-09 02:21 | 38.48401 | -91.98984 | 28425 ft | 427 kts | 226° |
| 2026-05-09 02:21 | 38.46259 | -92.01592 | 28142 ft | 425 kts | 226° |
| 2026-05-09 02:21 | 38.44123 | -92.04192 | 27885 ft | 424 kts | 226° |
| 2026-05-09 02:22 | 38.41987 | -92.06789 | 27611 ft | 422 kts | 226° |
| 2026-05-09 02:22 | 38.39865 | -92.09366 | 27353 ft | 421 kts | 226° |
| 2026-05-09 02:22 | 38.37748 | -92.11935 | 27088 ft | 419 kts | 226° |
| 2026-05-09 02:22 | 38.35638 | -92.14494 | 26829 ft | 418 kts | 226° |
| 2026-05-09 02:23 | 38.33535 | -92.17042 | 26566 ft | 417 kts | 226° |
| 2026-05-09 02:23 | 38.31436 | -92.19583 | 26307 ft | 415 kts | 226° |
| 2026-05-09 02:23 | 38.29345 | -92.22112 | 26054 ft | 414 kts | 226° |
| 2026-05-09 02:23 | 38.27260 | -92.24632 | 25819 ft | 413 kts | 226° |
| 2026-05-09 02:24 | 38.25208 | -92.27110 | 25575 ft | 412 kts | 226° |
| 2026-05-09 02:24 | 38.23133 | -92.29613 | 25354 ft | 410 kts | 227° |
| 2026-05-09 02:24 | 38.21061 | -92.32110 | 25132 ft | 409 kts | 227° |
| 2026-05-09 02:24 | 38.18996 | -92.34598 | 24889 ft | 408 kts | 227° |
| 2026-05-09 02:25 | 38.16936 | -92.37077 | 24651 ft | 407 kts | 227° |
| 2026-05-09 02:25 | 38.14885 | -92.39545 | 24400 ft | 406 kts | 227° |
| 2026-05-09 02:25 | 38.12834 | -92.42009 | 24168 ft | 405 kts | 227° |
| 2026-05-09 02:25 | 38.10788 | -92.44466 | 23946 ft | 404 kts | 227° |
| 2026-05-09 02:26 | 38.08742 | -92.46920 | 23717 ft | 404 kts | 227° |
| 2026-05-09 02:26 | 38.06701 | -92.49366 | 23486 ft | 403 kts | 227° |
| 2026-05-09 02:26 | 38.04663 | -92.51807 | 23217 ft | 402 kts | 227° |
| 2026-05-09 02:26 | 38.02629 | -92.54243 | 22935 ft | 402 kts | 227° |
| 2026-05-09 02:27 | 38.00596 | -92.56674 | 22674 ft | 401 kts | 227° |
| 2026-05-09 02:27 | 37.98594 | -92.59066 | 22428 ft | 400 kts | 227° |
| 2026-05-09 02:27 | 37.96573 | -92.61479 | 22066 ft | 399 kts | 227° |
| 2026-05-09 02:27 | 37.94558 | -92.63882 | 21805 ft | 397 kts | 227° |
| 2026-05-09 02:28 | 37.92546 | -92.66279 | 21557 ft | 396 kts | 227° |
| 2026-05-09 02:28 | 37.90542 | -92.68667 | 21273 ft | 396 kts | 228° |
| 2026-05-09 02:28 | 37.88533 | -92.71058 | 21013 ft | 395 kts | 228° |
| 2026-05-09 02:28 | 37.86532 | -92.73438 | 20770 ft | 395 kts | 228° |
| 2026-05-09 02:29 | 37.84532 | -92.75815 | 20526 ft | 394 kts | 228° |
| 2026-05-09 02:29 | 37.82530 | -92.78192 | 20278 ft | 394 kts | 228° |
| 2026-05-09 02:29 | 37.80536 | -92.80558 | 20088 ft | 393 kts | 228° |
| 2026-05-09 02:29 | 37.78544 | -92.82919 | 19837 ft | 391 kts | 228° |
| 2026-05-09 02:30 | 37.76559 | -92.85270 | 19640 ft | 390 kts | 228° |
| 2026-05-09 02:30 | 37.74578 | -92.87614 | 19439 ft | 389 kts | 228° |
| 2026-05-09 02:30 | 37.72603 | -92.89950 | 19245 ft | 389 kts | 228° |
| 2026-05-09 02:30 | 37.70630 | -92.92283 | 19056 ft | 388 kts | 228° |
| 2026-05-09 02:31 | 37.68660 | -92.94610 | 18879 ft | 387 kts | 228° |
| 2026-05-09 02:31 | 37.66691 | -92.96933 | 18676 ft | 387 kts | 228° |
| 2026-05-09 02:31 | 37.64724 | -92.99252 | 18486 ft | 387 kts | 228° |
| 2026-05-09 02:31 | 37.62761 | -93.01567 | 18299 ft | 386 kts | 228° |
| 2026-05-09 02:32 | 37.60820 | -93.03852 | 18111 ft | 386 kts | 228° |
| 2026-05-09 02:32 | 37.58860 | -93.06159 | 17903 ft | 385 kts | 228° |
| 2026-05-09 02:32 | 37.56903 | -93.08459 | 17699 ft | 384 kts | 228° |
| 2026-05-09 02:32 | 37.54949 | -93.10755 | 17475 ft | 383 kts | 228° |
| 2026-05-09 02:33 | 37.53001 | -93.13040 | 17263 ft | 382 kts | 228° |
| 2026-05-09 02:33 | 37.51058 | -93.15320 | 17055 ft | 381 kts | 228° |
| 2026-05-09 02:33 | 37.49123 | -93.17588 | 16844 ft | 380 kts | 228° |
| 2026-05-09 02:33 | 37.47192 | -93.19851 | 16637 ft | 379 kts | 228° |
| 2026-05-09 02:34 | 37.45267 | -93.22105 | 16426 ft | 378 kts | 228° |
| 2026-05-09 02:34 | 37.43345 | -93.24353 | 16229 ft | 377 kts | 228° |
| 2026-05-09 02:34 | 37.41431 | -93.26592 | 15989 ft | 375 kts | 228° |
| 2026-05-09 02:34 | 37.39516 | -93.28829 | 15776 ft | 375 kts | 228° |
| 2026-05-09 02:35 | 37.37603 | -93.31060 | 15566 ft | 374 kts | 228° |
| 2026-05-09 02:35 | 37.35792 | -93.33296 | 15386 ft | 364 kts | 234° |
| 2026-05-09 02:35 | 37.34466 | -93.35942 | 15253 ft | 355 kts | 249° |
| 2026-05-09 02:35 | 37.33577 | -93.38810 | 15110 ft | 353 kts | 252° |
| 2026-05-09 02:36 | 37.32611 | -93.41677 | 14960 ft | 359 kts | 249° |
| 2026-05-09 02:36 | 37.31558 | -93.44530 | 14836 ft | 360 kts | 248° |
| 2026-05-09 02:36 | 37.30484 | -93.47365 | 14684 ft | 359 kts | 248° |
| 2026-05-09 02:36 | 37.29409 | -93.50195 | 14540 ft | 358 kts | 248° |
| 2026-05-09 02:37 | 37.28342 | -93.53013 | 14399 ft | 357 kts | 248° |
| 2026-05-09 02:37 | 37.27283 | -93.55825 | 14262 ft | 356 kts | 248° |
| 2026-05-09 02:37 | 37.26229 | -93.58630 | 14125 ft | 355 kts | 248° |
| 2026-05-09 02:37 | 37.25180 | -93.61432 | 13974 ft | 354 kts | 248° |
| 2026-05-09 02:38 | 37.24131 | -93.64234 | 13839 ft | 354 kts | 249° |
| 2026-05-09 02:38 | 37.23084 | -93.67031 | 13693 ft | 353 kts | 248° |
| 2026-05-09 02:38 | 37.22039 | -93.69824 | 13544 ft | 353 kts | 248° |
| 2026-05-09 02:38 | 37.20994 | -93.72615 | 13388 ft | 353 kts | 248° |
| 2026-05-09 02:39 | 37.19950 | -93.75401 | 13223 ft | 352 kts | 248° |
| 2026-05-09 02:39 | 37.18906 | -93.78184 | 13068 ft | 352 kts | 248° |
| 2026-05-09 02:39 | 37.17864 | -93.80959 | 12905 ft | 352 kts | 248° |
| 2026-05-09 02:39 | 37.16821 | -93.83734 | 12750 ft | 351 kts | 249° |
| 2026-05-09 02:40 | 37.15780 | -93.86500 | 12594 ft | 350 kts | 249° |
| 2026-05-09 02:40 | 37.14755 | -93.89223 | 12457 ft | 349 kts | 249° |
| 2026-05-09 02:40 | 37.13719 | -93.91974 | 12301 ft | 349 kts | 249° |
| 2026-05-09 02:40 | 37.12686 | -93.94715 | 12149 ft | 347 kts | 249° |
| 2026-05-09 02:41 | 37.11652 | -93.97451 | 12004 ft | 346 kts | 249° |
| 2026-05-09 02:41 | 37.10623 | -94.00176 | 11841 ft | 345 kts | 248° |
| 2026-05-09 02:41 | 37.09596 | -94.02892 | 11712 ft | 345 kts | 248° |
| 2026-05-09 02:41 | 37.08580 | -94.05574 | 11555 ft | 335 kts | 248° |
| 2026-05-09 02:42 | 37.07596 | -94.08163 | 11392 ft | 323 kts | 249° |
| 2026-05-09 02:42 | 37.06646 | -94.10662 | 11224 ft | 312 kts | 249° |
| 2026-05-09 02:42 | 37.05725 | -94.13084 | 11095 ft | 301 kts | 249° |
| 2026-05-09 02:42 | 37.04841 | -94.15406 | 11041 ft | 289 kts | 249° |
| 2026-05-09 02:43 | 37.03996 | -94.17627 | 10970 ft | 277 kts | 249° |
| 2026-05-09 02:43 | 37.03177 | -94.19784 | 10875 ft | 275 kts | 249° |
| 2026-05-09 02:43 | 37.02354 | -94.21956 | 10761 ft | 276 kts | 249° |
| 2026-05-09 02:43 | 37.01534 | -94.24114 | 10654 ft | 273 kts | 249° |
| 2026-05-09 02:44 | 37.00723 | -94.26247 | 10543 ft | 271 kts | 249° |
| 2026-05-09 02:44 | 36.99925 | -94.28341 | 10438 ft | 269 kts | 249° |
| 2026-05-09 02:44 | 36.99123 | -94.30446 | 10347 ft | 267 kts | 249° |
| 2026-05-09 02:44 | 36.98325 | -94.32540 | 10250 ft | 266 kts | 249° |
| 2026-05-09 02:45 | 36.97465 | -94.34586 | 10149 ft | 267 kts | 244° |
| 2026-05-09 02:45 | 36.96446 | -94.36548 | 10054 ft | 269 kts | 241° |
| 2026-05-09 02:45 | 36.95391 | -94.38486 | 9983 ft | 270 kts | 241° |
| 2026-05-09 02:45 | 36.94415 | -94.40471 | 9871 ft | 267 kts | 248° |
| 2026-05-09 02:46 | 36.93612 | -94.42557 | 9783 ft | 267 kts | 250° |
| 2026-05-09 02:46 | 36.92842 | -94.44682 | 9694 ft | 268 kts | 250° |
| 2026-05-09 02:46 | 36.92071 | -94.46812 | 9593 ft | 270 kts | 250° |
| 2026-05-09 02:46 | 36.91290 | -94.48950 | 9486 ft | 271 kts | 250° |
| 2026-05-09 02:47 | 36.90501 | -94.51091 | 9381 ft | 271 kts | 249° |
| 2026-05-09 02:47 | 36.89707 | -94.53225 | 9287 ft | 269 kts | 249° |
| 2026-05-09 02:47 | 36.88918 | -94.55327 | 9161 ft | 265 kts | 249° |
| 2026-05-09 02:47 | 36.88137 | -94.57401 | 9042 ft | 262 kts | 249° |
| 2026-05-09 02:48 | 36.87370 | -94.59433 | 8938 ft | 263 kts | 249° |
| 2026-05-09 02:48 | 36.86588 | -94.61498 | 8845 ft | 264 kts | 249° |
| 2026-05-09 02:48 | 36.85803 | -94.63571 | 8737 ft | 264 kts | 249° |
| 2026-05-09 02:48 | 36.85014 | -94.65648 | 8657 ft | 265 kts | 249° |
| 2026-05-09 02:49 | 36.84223 | -94.67726 | 8551 ft | 265 kts | 249° |
| 2026-05-09 02:49 | 36.83431 | -94.69808 | 8457 ft | 266 kts | 249° |
| 2026-05-09 02:49 | 36.82634 | -94.71897 | 8348 ft | 267 kts | 249° |
| 2026-05-09 02:49 | 36.81837 | -94.73991 | 8231 ft | 267 kts | 248° |
| 2026-05-09 02:50 | 36.81035 | -94.76087 | 8093 ft | 267 kts | 249° |
| 2026-05-09 02:50 | 36.80246 | -94.78150 | 7976 ft | 266 kts | 248° |
| 2026-05-09 02:50 | 36.79449 | -94.80230 | 7855 ft | 266 kts | 248° |
| 2026-05-09 02:50 | 36.78653 | -94.82308 | 7726 ft | 265 kts | 248° |
| 2026-05-09 02:51 | 36.77860 | -94.84379 | 7613 ft | 264 kts | 248° |
| 2026-05-09 02:51 | 36.77068 | -94.86442 | 7480 ft | 263 kts | 248° |
| 2026-05-09 02:51 | 36.76279 | -94.88497 | 7358 ft | 262 kts | 248° |
| 2026-05-09 02:51 | 36.75492 | -94.90546 | 7236 ft | 262 kts | 248° |
| 2026-05-09 02:52 | 36.74706 | -94.92593 | 7113 ft | 261 kts | 248° |
| 2026-05-09 02:52 | 36.73922 | -94.94633 | 6994 ft | 260 kts | 248° |
| 2026-05-09 02:52 | 36.73140 | -94.96666 | 6858 ft | 262 kts | 248° |
| 2026-05-09 02:52 | 36.72343 | -94.98740 | 6753 ft | 267 kts | 248° |
| 2026-05-09 02:53 | 36.71525 | -95.00869 | 6682 ft | 287 kts | 247° |
| 2026-05-09 02:53 | 36.70612 | -95.03255 | 6673 ft | 317 kts | 247° |
| 2026-05-09 02:53 | 36.69646 | -95.05762 | 6638 ft | 322 kts | 247° |
| 2026-05-09 02:53 | 36.68670 | -95.08284 | 6592 ft | 324 kts | 246° |
| 2026-05-09 02:54 | 36.67703 | -95.10780 | 6461 ft | 324 kts | 246° |
| 2026-05-09 02:54 | 36.66723 | -95.13308 | 6341 ft | 323 kts | 246° |
| 2026-05-09 02:54 | 36.65748 | -95.15824 | 6219 ft | 322 kts | 246° |
| 2026-05-09 02:54 | 36.64773 | -95.18338 | 6087 ft | 322 kts | 246° |
| 2026-05-09 02:55 | 36.63800 | -95.20844 | 5961 ft | 321 kts | 246° |
| 2026-05-09 02:55 | 36.62830 | -95.23342 | 5830 ft | 320 kts | 247° |
| 2026-05-09 02:55 | 36.61863 | -95.25831 | 5706 ft | 319 kts | 247° |
| 2026-05-09 02:55 | 36.60899 | -95.28312 | 5579 ft | 317 kts | 247° |
| 2026-05-09 02:56 | 36.59940 | -95.30778 | 5456 ft | 315 kts | 247° |
| 2026-05-09 02:56 | 36.58986 | -95.33229 | 5318 ft | 314 kts | 247° |
| 2026-05-09 02:56 | 36.58033 | -95.35678 | 5191 ft | 315 kts | 246° |
| 2026-05-09 02:56 | 36.57074 | -95.38139 | 5068 ft | 317 kts | 246° |
| 2026-05-09 02:57 | 36.56110 | -95.40610 | 4955 ft | 318 kts | 246° |
| 2026-05-09 02:57 | 36.55144 | -95.43087 | 4838 ft | 319 kts | 246° |
| 2026-05-09 02:57 | 36.54174 | -95.45570 | 4714 ft | 319 kts | 246° |
| 2026-05-09 02:57 | 36.53201 | -95.48059 | 4551 ft | 320 kts | 246° |
| 2026-05-09 02:58 | 36.52229 | -95.50543 | 4416 ft | 319 kts | 246° |
| 2026-05-09 02:58 | 36.51258 | -95.53024 | 4268 ft | 319 kts | 246° |
| 2026-05-09 02:58 | 36.50617 | -95.54660 | 4172 ft | 318 kts | 246° |
| 2026-05-09 02:58 | 36.49654 | -95.57115 | 4032 ft | 315 kts | 246° |
| 2026-05-09 02:59 | 36.48695 | -95.59558 | 3901 ft | 313 kts | 246° |
| 2026-05-09 02:59 | 36.47746 | -95.61975 | 3780 ft | 310 kts | 246° |
| 2026-05-09 02:59 | 36.46802 | -95.64379 | 3635 ft | 308 kts | 246° |
| 2026-05-09 02:59 | 36.45558 | -95.67540 | 3469 ft | 305 kts | 245° |
| 2026-05-09 03:00 | 36.44936 | -95.69119 | 3374 ft | 298 kts | 245° |
| 2026-05-09 03:00 | 36.44042 | -95.71385 | 3232 ft | 287 kts | 246° |
| 2026-05-09 03:00 | 36.43181 | -95.73569 | 3089 ft | 277 kts | 246° |
| 2026-05-09 03:00 | 36.42358 | -95.75656 | 2956 ft | 265 kts | 246° |
| 2026-05-09 03:01 | 36.41603 | -95.77568 | 2749 ft | 227 kts | 246° |
| 2026-05-09 03:01 | 36.40960 | -95.79194 | 2542 ft | 195 kts | 246° |
| 2026-05-09 03:01 | 36.40387 | -95.80645 | 2529 ft | 180 kts | 245° |
| 2026-05-09 03:01 | 36.39866 | -95.81962 | 2485 ft | 159 kts | 245° |
| 2026-05-09 03:02 | 36.39413 | -95.83107 | 2420 ft | 138 kts | 246° |
| 2026-05-09 03:02 | 36.38998 | -95.84157 | 2407 ft | 135 kts | 246° |
| 2026-05-09 03:02 | 36.38584 | -95.85205 | 2410 ft | 136 kts | 246° |
| 2026-05-09 03:02 | 36.38041 | -95.86146 | 2391 ft | 137 kts | 215° |
| 2026-05-09 03:03 | 36.37105 | -95.86474 | 2443 ft | 145 kts | 198° |
| 2026-05-09 03:03 | 36.36116 | -95.86760 | 2416 ft | 146 kts | 196° |
| 2026-05-09 03:03 | 36.35130 | -95.86975 | 2409 ft | 141 kts | 195° |
| 2026-05-09 03:03 | 36.34176 | -95.87174 | 2406 ft | 137 kts | 193° |
| 2026-05-09 03:04 | 36.33232 | -95.87302 | 2408 ft | 139 kts | 190° |
| 2026-05-09 03:04 | 36.32247 | -95.87392 | 2427 ft | 143 kts | 188° |
| 2026-05-09 03:04 | 36.31256 | -95.87466 | 2411 ft | 143 kts | 188° |
| 2026-05-09 03:04 | 36.30250 | -95.87535 | 2226 ft | 144 kts | 187° |
| 2026-05-09 03:05 | 36.29261 | -95.87601 | 2061 ft | 140 kts | 187° |
| 2026-05-09 03:05 | 36.28303 | -95.87666 | 1898 ft | 138 kts | 187° |
| 2026-05-09 03:05 | 36.27355 | -95.87730 | 1740 ft | 138 kts | 186° |
| 2026-05-09 03:05 | 36.26398 | -95.87794 | 1579 ft | 138 kts | 186° |
| 2026-05-09 03:06 | 36.25439 | -95.87859 | 1404 ft | 138 kts | 185° |
| 2026-05-09 03:06 | 36.24478 | -95.87923 | 1241 ft | 138 kts | 184° |
| 2026-05-09 03:06 | 36.23522 | -95.87987 | 1057 ft | 137 kts | 183° |
| 2026-05-09 03:06 | 36.22583 | -95.88049 | 878 ft | 135 kts | 184° |
| 2026-05-09 03:07 | 36.21644 | -95.88112 | 724 ft | 136 kts | 184° |
| 2026-05-09 03:07 | 36.20717 | -95.88173 | 648 ft | 125 kts | 184° |
| 2026-05-09 03:07 | 36.19953 | -95.88230 | 656 ft | 87 kts | 183° |
| 2026-05-09 03:07 | 36.19542 | -95.88257 | 658 ft | 35 kts | 183° |
| 2026-05-09 03:08 | 36.19331 | -95.88272 | 657 ft | 12 kts | 189° |
| 2026-05-09 03:08 | 36.19251 | -95.88318 | 656 ft | 13 kts | 211° |
| 2026-05-09 03:08 | 36.19173 | -95.88381 | 658 ft | 13 kts | 213° |
| 2026-05-09 03:08 | 36.19124 | -95.88473 | 658 ft | 13 kts | 270° |
| 2026-05-09 03:09 | 36.19176 | -95.88557 | 659 ft | 12 kts | 316° |
| 2026-05-09 03:09 | 36.19228 | -95.88636 | 660 ft | 12 kts | 305° |
| 2026-05-09 03:09 | 36.19236 | -95.88726 | 660 ft | 12 kts | 223° |
| 2026-05-09 03:09 | 36.19168 | -95.88781 | 661 ft | 10 kts | 179° |
| 2026-05-09 03:10 | 36.19142 | -95.88769 | 661 ft | 4 kts | 155° |
| 2026-05-09 03:10 | 36.19128 | -95.88760 | 662 ft | 0 kts | 155° |